Terminal Aerodrome Forecast
Issued by NWS

Home | Current Version | Previous Version | Text Only | Print | Product List | Glossary On
Versions: 1 2 3 4 5 6 7 8 9 10 11 12
000
FTUS45 KPSR 222320
TAFBLH
TAF
KBLH 222320Z 2300/2324 18009KT P6SM FEW170 SCT250
     FM230200 22010KT P6SM FEW250
     FM230900 VRB05KT P6SM SKC
      TEMPO 2311/2315 34005KT
     FM231800 17012KT P6SM SKC=

USA.gov is the U.S. government's official web portal to all federal, state and local government web resources and services.